METAR Data
IDs: Format: Raw Decoded Include TAF

Data at: 1557 UTC 03 Jul 2020

METAR for:KFFT (Frankfort/Capital Ci, KY, US)
Text:KFFT 031553Z AUTO VRB03KT 10SM SCT055 31/18 A3004 RMK AO2 SLP163 T03060183
Temperature: 30.6°C ( 87°F)
Dewpoint: 18.3°C ( 65°F) [RH = 48%]
Pressure (altimeter):30.04 inches Hg (1017.4 mb) [Sea level pressure: 1016.3 mb]
Winds:variable direction winds at 3 MPH (3 knots; 1.5 m/s)
Visibility:10 or more sm (16+ km)
Ceiling:at least 12,000 feet AGL
Clouds: scattered clouds at 5500 feet AGL
QC Flag:automated observation with no human augmentation